createdAt,value
2022-07-26T00:00:13.235Z,17.90
2022-07-26T00:03:00.264Z,17.90
2022-07-26T00:05:27.437Z,17.90
2022-07-26T00:08:10.778Z,17.90
2022-07-26T00:10:41.415Z,17.90
2022-07-26T00:13:08.649Z,17.90
2022-07-26T00:15:36.413Z,17.80
2022-07-26T00:18:04.431Z,17.90
2022-07-26T00:20:31.403Z,18.00
2022-07-26T00:22:59.074Z,18.10
2022-07-26T00:25:26.240Z,18.10
2022-07-26T00:27:53.277Z,18.10
2022-07-26T00:30:20.328Z,18.10
2022-07-26T00:32:47.583Z,18.10
2022-07-26T00:35:14.688Z,18.10
2022-07-26T00:37:42.123Z,18.10
2022-07-26T00:40:10.081Z,18.10
2022-07-26T00:42:37.411Z,18.10
2022-07-26T00:45:06.442Z,18.10
2022-07-26T00:47:33.654Z,18.20
2022-07-26T00:50:00.937Z,18.20
2022-07-26T00:52:28.274Z,18.10
2022-07-26T00:54:56.182Z,18.10
2022-07-26T00:57:23.583Z,18.10
2022-07-26T00:59:50.695Z,18.00
2022-07-26T01:02:18.679Z,18.10
2022-07-26T01:04:45.833Z,18.00
2022-07-26T01:07:15.438Z,18.00
2022-07-26T01:09:43.506Z,18.00
2022-07-26T01:12:11.090Z,18.00
2022-07-26T01:14:38.187Z,18.00
2022-07-26T01:17:05.461Z,18.00
2022-07-26T01:19:32.450Z,18.00
2022-07-26T01:21:59.466Z,17.90
2022-07-26T01:24:26.641Z,18.00
2022-07-26T01:26:55.589Z,18.00
2022-07-26T01:29:23.911Z,18.00
2022-07-26T01:32:04.084Z,18.00
2022-07-26T01:34:31.264Z,18.00
2022-07-26T01:36:58.539Z,18.00
2022-07-26T01:39:25.645Z,17.90
2022-07-26T01:41:53.560Z,17.90
2022-07-26T01:44:20.466Z,17.80
2022-07-26T01:46:47.672Z,17.80
2022-07-26T01:49:15.014Z,17.80
2022-07-26T01:51:41.997Z,17.80
2022-07-26T01:54:09.947Z,17.80
2022-07-26T01:56:37.196Z,17.70
2022-07-26T01:59:04.806Z,17.70
2022-07-26T02:01:38.942Z,17.60
2022-07-26T02:04:29.537Z,17.60
2022-07-26T02:06:56.702Z,17.60
2022-07-26T02:09:24.050Z,17.60
2022-07-26T02:11:53.491Z,17.60
2022-07-26T02:14:26.111Z,17.50
2022-07-26T02:16:59.922Z,17.50
2022-07-26T02:19:31.447Z,17.40
2022-07-26T02:21:59.177Z,17.50
2022-07-26T02:24:29.878Z,17.50
2022-07-26T02:26:58.692Z,17.40
2022-07-26T02:29:26.413Z,17.50
2022-07-26T02:31:54.008Z,17.50
2022-07-26T02:34:21.144Z,17.50
2022-07-26T02:36:48.115Z,17.50
2022-07-26T02:39:15.207Z,17.50
2022-07-26T02:41:42.438Z,17.50
2022-07-26T02:44:10.435Z,17.50
2022-07-26T02:46:38.185Z,17.50
2022-07-26T02:49:05.698Z,17.50
2022-07-26T02:51:32.685Z,17.50
2022-07-26T02:53:59.581Z,17.50
2022-07-26T02:56:26.741Z,17.50
2022-07-26T02:58:53.676Z,17.50
2022-07-26T03:01:20.653Z,17.50
2022-07-26T03:03:50.910Z,17.50
2022-07-26T03:06:18.948Z,17.50
2022-07-26T03:08:46.222Z,17.50
2022-07-26T03:11:13.293Z,17.50
2022-07-26T03:13:40.300Z,17.50
2022-07-26T03:16:08.271Z,17.50
2022-07-26T03:18:35.441Z,17.50
2022-07-26T03:21:02.904Z,17.50
2022-07-26T03:23:33.296Z,17.60
2022-07-26T03:26:02.066Z,17.60
2022-07-26T03:28:33.265Z,17.70
2022-07-26T03:31:00.872Z,17.70
2022-07-26T03:33:28.994Z,17.80
2022-07-26T03:35:56.359Z,17.80
2022-07-26T03:38:23.446Z,17.90
2022-07-26T03:40:50.653Z,18.00
2022-07-26T03:43:22.978Z,18.10
2022-07-26T03:45:50.796Z,18.10
2022-07-26T03:48:17.984Z,18.20
2022-07-26T03:50:44.945Z,18.30
2022-07-26T03:53:11.988Z,18.30
2022-07-26T03:56:17.524Z,18.40
2022-07-26T03:58:44.445Z,18.40
2022-07-26T04:01:11.616Z,18.40
2022-07-26T04:03:40.031Z,18.50
2022-07-26T04:06:11.471Z,18.60
2022-07-26T04:08:38.691Z,18.70
2022-07-26T04:11:05.717Z,18.80
2022-07-26T04:13:33.106Z,18.80
2022-07-26T04:16:00.749Z,18.80
2022-07-26T04:18:27.652Z,18.90
2022-07-26T04:20:54.641Z,19.00
2022-07-26T04:23:21.886Z,19.10
2022-07-26T04:25:48.824Z,19.10
2022-07-26T04:28:15.734Z,19.30
2022-07-26T04:30:43.660Z,19.30
2022-07-26T04:33:10.634Z,19.40
2022-07-26T04:35:37.845Z,19.40
2022-07-26T04:38:05.233Z,19.50
2022-07-26T04:40:34.883Z,19.60
2022-07-26T04:43:08.611Z,19.70
2022-07-26T04:45:37.895Z,19.80
2022-07-26T04:48:05.362Z,19.90
2022-07-26T04:50:32.534Z,19.90
2022-07-26T04:52:59.415Z,19.90
2022-07-26T04:55:26.341Z,19.90
2022-07-26T04:57:53.442Z,20.00
2022-07-26T05:00:24.272Z,20.00
2022-07-26T05:02:55.681Z,20.00
2022-07-26T05:05:24.784Z,20.10
2022-07-26T05:07:53.828Z,20.10
2022-07-26T05:10:23.402Z,20.20
2022-07-26T05:12:50.665Z,20.30
2022-07-26T05:15:17.578Z,20.40
2022-07-26T05:17:45.186Z,20.50
2022-07-26T05:20:15.222Z,20.40
2022-07-26T05:22:42.663Z,20.40
2022-07-26T05:25:10.563Z,20.50
2022-07-26T05:27:38.928Z,20.50
2022-07-26T05:30:06.338Z,20.60
2022-07-26T05:32:33.310Z,20.70
2022-07-26T05:35:00.431Z,20.80
2022-07-26T05:37:27.359Z,20.90
2022-07-26T05:39:54.294Z,21.00
2022-07-26T05:42:21.354Z,21.10
2022-07-26T05:44:48.375Z,21.30
2022-07-26T05:47:16.554Z,21.30
2022-07-26T05:49:43.657Z,21.40
2022-07-26T05:52:10.709Z,21.60
2022-07-26T05:54:37.934Z,21.70
2022-07-26T05:57:05.307Z,21.70
2022-07-26T05:59:32.809Z,21.80
2022-07-26T06:01:59.986Z,21.90
2022-07-26T06:04:27.782Z,22.10
2022-07-26T06:06:55.309Z,22.20
2022-07-26T06:09:24.273Z,22.40
2022-07-26T06:11:52.077Z,22.50
2022-07-26T06:14:20.080Z,22.80
2022-07-26T06:16:47.822Z,23.00
2022-07-26T06:19:15.699Z,23.20
2022-07-26T06:21:42.850Z,23.50
2022-07-26T06:24:10.458Z,23.70
2022-07-26T06:26:37.897Z,23.90
2022-07-26T06:29:05.217Z,24.00
2022-07-26T06:31:32.300Z,24.10
2022-07-26T06:33:59.487Z,24.30
2022-07-26T06:36:30.541Z,24.40
2022-07-26T06:38:59.086Z,24.40
2022-07-26T06:41:26.287Z,24.50
2022-07-26T06:43:53.281Z,24.80
2022-07-26T06:46:21.434Z,25.00
2022-07-26T06:48:52.491Z,25.30
2022-07-26T06:51:20.990Z,25.50
2022-07-26T06:53:48.330Z,25.60
2022-07-26T06:56:17.825Z,25.80
2022-07-26T06:58:44.879Z,26.10
2022-07-26T07:01:11.891Z,26.40
2022-07-26T07:03:39.131Z,26.60
2022-07-26T07:06:26.509Z,26.60
2022-07-26T07:09:08.935Z,26.90
2022-07-26T07:11:51.836Z,27.00
2022-07-26T07:14:25.818Z,27.40
2022-07-26T07:16:52.813Z,27.50
2022-07-26T07:19:20.092Z,27.50
2022-07-26T07:21:47.176Z,27.20
2022-07-26T07:24:14.320Z,27.10
2022-07-26T07:26:41.768Z,26.80
2022-07-26T07:29:14.618Z,26.90
2022-07-26T07:31:48.563Z,27.10
2022-07-26T07:34:23.981Z,27.30
2022-07-26T07:36:51.709Z,27.60
2022-07-26T07:39:19.246Z,27.80
2022-07-26T07:41:47.465Z,28.40
2022-07-26T07:44:14.978Z,28.80
2022-07-26T07:46:42.362Z,29.10
2022-07-26T07:49:11.104Z,29.40
2022-07-26T07:51:38.489Z,29.40
2022-07-26T07:54:06.300Z,29.70
2022-07-26T07:56:34.439Z,29.30
2022-07-26T07:59:01.618Z,29.20
2022-07-26T08:01:40.647Z,29.20
2022-07-26T08:04:09.045Z,29.20
2022-07-26T08:06:37.545Z,29.00
2022-07-26T08:09:08.537Z,29.10
2022-07-26T08:11:36.461Z,29.10
2022-07-26T08:14:09.083Z,29.00
2022-07-26T08:16:36.617Z,28.60
2022-07-26T08:19:03.738Z,28.40
2022-07-26T08:21:31.001Z,28.30
2022-07-26T08:23:58.369Z,28.10
2022-07-26T08:26:25.532Z,28.10
2022-07-26T08:28:59.512Z,27.90
2022-07-26T08:31:37.434Z,28.00
2022-07-26T08:34:04.614Z,28.10
2022-07-26T08:36:32.895Z,28.20
2022-07-26T08:39:01.282Z,28.10
2022-07-26T08:41:28.650Z,28.30
2022-07-26T08:44:04.067Z,28.50
2022-07-26T08:46:34.152Z,28.80
2022-07-26T08:49:01.109Z,28.90
2022-07-26T08:51:28.149Z,28.90
2022-07-26T08:54:04.921Z,29.10
2022-07-26T08:56:35.685Z,29.40
2022-07-26T08:59:19.143Z,29.60
2022-07-26T09:01:57.815Z,29.70
2022-07-26T09:04:33.860Z,30.00
2022-07-26T09:07:05.098Z,29.70
2022-07-26T09:09:34.315Z,29.40
2022-07-26T09:12:16.834Z,29.40
2022-07-26T09:14:46.748Z,29.70
2022-07-26T09:17:16.086Z,29.90
2022-07-26T09:19:43.355Z,30.20
2022-07-26T09:22:13.319Z,30.30
2022-07-26T09:24:46.450Z,30.40
2022-07-26T09:27:17.299Z,30.30
2022-07-26T09:29:51.339Z,30.30
2022-07-26T09:32:20.309Z,30.10
2022-07-26T09:34:54.364Z,29.70
2022-07-26T09:37:39.261Z,29.70
2022-07-26T09:40:09.173Z,29.80
2022-07-26T09:42:36.338Z,29.70
2022-07-26T09:45:14.585Z,29.80
2022-07-26T09:47:41.845Z,30.20
2022-07-26T09:50:17.866Z,30.60
2022-07-26T09:53:00.679Z,30.70
2022-07-26T09:55:36.373Z,30.90
2022-07-26T09:58:06.986Z,30.80
2022-07-26T10:00:34.311Z,30.30
2022-07-26T10:03:01.678Z,29.80
2022-07-26T10:05:29.528Z,29.40
2022-07-26T10:07:59.164Z,29.10
2022-07-26T10:10:34.886Z,29.40
2022-07-26T10:13:03.683Z,29.80
2022-07-26T10:15:43.646Z,29.70
2022-07-26T10:18:39.289Z,29.40
2022-07-26T10:21:25.127Z,29.30
2022-07-26T10:23:59.402Z,29.70
2022-07-26T10:26:32.087Z,30.20
2022-07-26T10:29:17.693Z,30.30
2022-07-26T10:31:46.126Z,30.10
2022-07-26T10:34:39.469Z,30.30
2022-07-26T10:37:08.855Z,30.70
2022-07-26T10:39:37.242Z,30.80
2022-07-26T10:42:09.675Z,30.10
2022-07-26T10:44:41.306Z,30.10
2022-07-26T10:47:08.226Z,29.50
2022-07-26T10:49:41.246Z,29.40
2022-07-26T10:52:21.867Z,29.60
2022-07-26T10:55:00.894Z,29.60
2022-07-26T10:57:33.020Z,29.40
2022-07-26T11:00:01.218Z,28.70
2022-07-26T11:02:32.646Z,28.80
2022-07-26T11:05:05.605Z,28.50
2022-07-26T11:07:32.753Z,28.50
2022-07-26T11:10:01.656Z,28.60
2022-07-26T11:12:28.589Z,28.60
2022-07-26T11:14:55.700Z,28.50
2022-07-26T11:17:31.786Z,28.30
2022-07-26T11:19:59.114Z,28.10
2022-07-26T11:22:33.253Z,27.90
2022-07-26T11:25:00.548Z,28.30
2022-07-26T11:27:27.523Z,28.50
2022-07-26T11:29:54.454Z,28.50
2022-07-26T11:32:25.112Z,28.20
2022-07-26T11:35:05.067Z,27.70
2022-07-26T11:37:32.325Z,27.30
2022-07-26T11:39:59.293Z,27.10
2022-07-26T11:42:26.278Z,27.00
2022-07-26T11:44:53.987Z,26.70
2022-07-26T11:47:25.276Z,26.40
2022-07-26T11:50:12.437Z,26.00
2022-07-26T11:52:40.115Z,25.80
2022-07-26T11:55:07.607Z,25.70
2022-07-26T11:57:34.611Z,25.50
2022-07-26T12:00:02.025Z,25.60
2022-07-26T12:02:30.668Z,25.60
2022-07-26T12:05:23.224Z,25.60
2022-07-26T12:07:59.555Z,25.30
2022-07-26T12:10:27.721Z,25.20
2022-07-26T12:13:14.895Z,25.00
2022-07-26T12:15:59.968Z,24.90
2022-07-26T12:18:31.433Z,24.80
2022-07-26T12:21:04.163Z,24.60
2022-07-26T12:23:49.537Z,24.30
2022-07-26T12:26:26.219Z,24.10
2022-07-26T12:28:54.144Z,24.10
2022-07-26T12:31:28.253Z,23.80
2022-07-26T12:33:56.063Z,23.50
2022-07-26T12:36:28.222Z,23.30
2022-07-26T12:38:58.359Z,23.20
2022-07-26T12:41:52.413Z,23.00
2022-07-26T12:44:22.851Z,22.90
2022-07-26T12:46:49.921Z,22.80
2022-07-26T12:49:17.782Z,22.70
2022-07-26T12:51:44.920Z,22.60
2022-07-26T12:54:12.233Z,22.50
2022-07-26T12:56:39.457Z,22.50
2022-07-26T12:59:06.612Z,22.50
2022-07-26T13:01:33.738Z,22.40
2022-07-26T13:04:01.101Z,22.30
2022-07-26T13:06:28.957Z,22.30
2022-07-26T13:08:56.562Z,22.30
2022-07-26T13:11:24.053Z,21.90
2022-07-26T13:13:51.207Z,21.40
2022-07-26T13:16:18.153Z,21.10
2022-07-26T13:18:46.353Z,20.80
2022-07-26T13:21:13.574Z,20.60
2022-07-26T13:23:40.635Z,20.50
2022-07-26T13:26:09.326Z,20.30
2022-07-26T13:28:37.078Z,20.20
2022-07-26T13:31:04.187Z,20.20
2022-07-26T13:33:32.637Z,20.10
2022-07-26T13:35:59.797Z,20.10
2022-07-26T13:38:46.707Z,20.00
2022-07-26T13:41:29.732Z,20.00
2022-07-26T13:43:58.390Z,20.00
2022-07-26T13:46:33.518Z,20.10
2022-07-26T13:49:02.976Z,20.10
2022-07-26T13:51:54.771Z,20.10
2022-07-26T13:54:23.806Z,20.20
2022-07-26T13:56:51.314Z,20.20
2022-07-26T13:59:18.268Z,20.20
2022-07-26T14:01:46.222Z,20.30
2022-07-26T14:04:14.115Z,20.20
2022-07-26T14:06:41.677Z,20.10
2022-07-26T14:09:12.650Z,20.20
2022-07-26T14:11:39.901Z,20.20
2022-07-26T14:14:07.580Z,20.30
2022-07-26T14:16:35.147Z,20.40
2022-07-26T14:19:03.008Z,20.40
2022-07-26T14:21:43.630Z,20.40
2022-07-26T14:24:21.011Z,20.40
2022-07-26T14:26:48.119Z,20.50
2022-07-26T14:29:15.210Z,20.50
2022-07-26T14:31:42.359Z,20.60
2022-07-26T14:34:09.731Z,20.60
2022-07-26T14:36:36.912Z,20.60
2022-07-26T14:39:05.020Z,20.50
2022-07-26T14:41:32.075Z,20.50
2022-07-26T14:44:01.266Z,20.50
2022-07-26T14:46:28.756Z,20.60
2022-07-26T14:48:55.811Z,20.60
2022-07-26T14:51:22.871Z,20.60
2022-07-26T14:53:50.978Z,20.70
2022-07-26T14:56:17.891Z,20.70
2022-07-26T14:58:44.828Z,20.80
2022-07-26T15:01:12.058Z,20.70
2022-07-26T15:03:39.198Z,20.80
2022-07-26T15:06:06.187Z,20.80
2022-07-26T15:08:33.337Z,20.80
2022-07-26T15:11:00.428Z,20.80
2022-07-26T15:13:27.489Z,20.70
2022-07-26T15:15:54.630Z,20.60
2022-07-26T15:18:21.579Z,20.60
2022-07-26T15:20:51.319Z,20.50
2022-07-26T15:23:18.465Z,20.50
2022-07-26T15:25:46.173Z,20.50
2022-07-26T15:28:13.085Z,20.60
2022-07-26T15:30:40.808Z,20.60
2022-07-26T15:33:12.826Z,20.50
2022-07-26T15:35:40.620Z,20.50
2022-07-26T15:38:07.975Z,20.50
2022-07-26T15:40:35.220Z,20.50
2022-07-26T15:43:02.262Z,20.60
2022-07-26T15:45:30.094Z,20.50
2022-07-26T15:48:13.467Z,20.40
2022-07-26T15:50:43.600Z,20.40
2022-07-26T15:53:10.793Z,20.20
2022-07-26T15:55:37.714Z,20.20
2022-07-26T15:58:05.036Z,20.20
2022-07-26T16:00:32.170Z,20.20
2022-07-26T16:02:59.102Z,20.10
2022-07-26T16:05:26.236Z,20.10
2022-07-26T16:07:53.332Z,20.00
2022-07-26T16:10:20.302Z,19.90
2022-07-26T16:12:48.009Z,20.00
2022-07-26T16:15:15.047Z,19.90
2022-07-26T16:17:42.007Z,19.80
2022-07-26T16:20:09.984Z,19.80
2022-07-26T16:22:41.046Z,19.80
2022-07-26T16:25:09.354Z,19.70
2022-07-26T16:27:36.507Z,19.70
2022-07-26T16:30:04.422Z,19.70
2022-07-26T16:32:31.370Z,19.60
2022-07-26T16:34:58.444Z,19.70
2022-07-26T16:37:25.433Z,19.70
2022-07-26T16:39:53.365Z,19.50
2022-07-26T16:42:20.445Z,19.50
2022-07-26T16:44:47.471Z,19.40
2022-07-26T16:47:14.496Z,19.30
2022-07-26T16:49:41.799Z,19.30
2022-07-26T16:52:08.944Z,19.30
2022-07-26T16:54:35.889Z,19.20
2022-07-26T16:57:03.159Z,19.00
2022-07-26T16:59:30.093Z,18.90
2022-07-26T17:02:01.588Z,18.80
2022-07-26T17:04:30.183Z,18.80
2022-07-26T17:07:23.431Z,18.80
2022-07-26T17:09:44.755Z,18.80
2022-07-26T17:12:11.761Z,18.80
2022-07-26T17:14:38.674Z,18.80
2022-07-26T17:17:05.794Z,18.80
2022-07-26T17:19:32.699Z,18.80
2022-07-26T17:21:59.594Z,18.80
2022-07-26T17:24:26.724Z,18.80
2022-07-26T17:26:54.427Z,18.80
2022-07-26T17:29:21.431Z,18.80
2022-07-26T17:31:50.066Z,18.80
2022-07-26T17:34:17.175Z,18.70
2022-07-26T17:36:46.462Z,18.70
2022-07-26T17:39:14.867Z,18.70
2022-07-26T17:41:45.490Z,18.80
2022-07-26T17:44:15.068Z,18.80
2022-07-26T17:46:42.365Z,18.80
2022-07-26T17:49:09.733Z,18.80
2022-07-26T17:51:37.630Z,18.80
2022-07-26T17:54:04.729Z,18.70
2022-07-26T17:56:31.741Z,18.70
2022-07-26T17:58:58.877Z,18.70
2022-07-26T18:01:26.009Z,18.70
2022-07-26T18:03:53.091Z,18.70
2022-07-26T18:06:20.432Z,18.70
2022-07-26T18:08:48.179Z,18.80
2022-07-26T18:11:15.127Z,18.80
2022-07-26T18:13:42.415Z,18.70
2022-07-26T18:16:09.379Z,18.70
2022-07-26T18:18:36.302Z,18.70
2022-07-26T18:21:03.501Z,18.70
2022-07-26T18:23:30.458Z,18.70
2022-07-26T18:25:58.132Z,18.70
2022-07-26T18:28:25.306Z,18.70
2022-07-26T18:30:52.357Z,18.80
2022-07-26T18:33:19.301Z,18.80
2022-07-26T18:35:46.432Z,18.80
2022-07-26T18:38:13.540Z,18.80
2022-07-26T18:40:40.790Z,18.80
2022-07-26T18:43:07.957Z,18.80
2022-07-26T18:45:34.998Z,18.80
2022-07-26T18:48:01.935Z,18.80
2022-07-26T18:50:30.970Z,18.70
2022-07-26T18:52:59.355Z,18.70
2022-07-26T18:55:26.460Z,18.80
2022-07-26T18:57:53.714Z,18.70
2022-07-26T19:00:22.688Z,18.80
2022-07-26T19:02:51.964Z,18.70
2022-07-26T19:05:22.829Z,18.70
2022-07-26T19:07:51.315Z,18.70
2022-07-26T19:10:20.048Z,18.70
2022-07-26T19:12:48.494Z,18.70
2022-07-26T19:15:16.406Z,18.70
2022-07-26T19:17:43.459Z,18.70
2022-07-26T19:20:11.161Z,18.70
2022-07-26T19:22:38.777Z,18.60
2022-07-26T19:25:11.040Z,18.60
2022-07-26T19:27:39.188Z,18.60
2022-07-26T19:30:08.218Z,18.60
2022-07-26T19:32:35.311Z,18.60
2022-07-26T19:35:03.909Z,18.60
2022-07-26T19:37:30.831Z,18.60
2022-07-26T19:40:00.897Z,18.60
2022-07-26T19:42:31.769Z,18.50
2022-07-26T19:44:59.305Z,18.50
2022-07-26T19:47:26.982Z,18.50
2022-07-26T19:49:54.269Z,18.50
2022-07-26T19:52:21.182Z,18.50
2022-07-26T19:54:48.059Z,18.50
2022-07-26T19:57:19.501Z,18.50
2022-07-26T19:59:47.505Z,18.50
2022-07-26T20:02:14.757Z,18.40
2022-07-26T20:04:45.887Z,18.40
2022-07-26T20:07:19.186Z,18.40
2022-07-26T20:09:50.561Z,18.40
2022-07-26T20:12:19.179Z,18.40
2022-07-26T20:14:46.463Z,18.30
2022-07-26T20:17:15.001Z,18.30
2022-07-26T20:19:41.998Z,18.40
2022-07-26T20:22:09.019Z,18.30
2022-07-26T20:24:38.149Z,18.30
2022-07-26T20:27:07.883Z,18.30
2022-07-26T20:29:35.027Z,18.30
2022-07-26T20:32:02.511Z,18.30
2022-07-26T20:34:30.029Z,18.30
2022-07-26T20:36:57.029Z,18.20
2022-07-26T20:39:26.173Z,18.20
2022-07-26T20:41:53.395Z,18.20
2022-07-26T20:44:23.992Z,18.20
2022-07-26T20:46:55.269Z,18.20
2022-07-26T20:49:22.235Z,18.20
2022-07-26T20:51:49.167Z,18.20
2022-07-26T20:54:16.385Z,18.10
2022-07-26T20:56:43.354Z,18.10
2022-07-26T20:59:10.586Z,18.10
2022-07-26T21:01:38.043Z,18.10
2022-07-26T21:04:05.031Z,18.10
2022-07-26T21:06:33.267Z,18.10
2022-07-26T21:09:00.989Z,18.00
2022-07-26T21:11:36.115Z,18.00
2022-07-26T21:14:03.233Z,18.00
2022-07-26T21:16:30.258Z,18.00
2022-07-26T21:18:57.376Z,18.00
2022-07-26T21:21:26.070Z,17.90
2022-07-26T21:23:52.942Z,18.00
2022-07-26T21:26:19.969Z,18.00
2022-07-26T21:28:47.088Z,17.90
2022-07-26T21:31:14.053Z,18.00
2022-07-26T21:33:41.197Z,18.10
2022-07-26T21:36:08.368Z,18.00
2022-07-26T21:38:35.302Z,18.10
2022-07-26T21:41:02.215Z,18.10
2022-07-26T21:43:29.406Z,18.10
2022-07-26T21:45:56.460Z,18.00
2022-07-26T21:48:23.796Z,18.10
2022-07-26T21:50:50.986Z,18.00
2022-07-26T21:53:17.897Z,18.10
2022-07-26T21:55:44.815Z,18.00
2022-07-26T21:58:11.940Z,18.00
2022-07-26T22:00:39.552Z,18.10
2022-07-26T22:03:06.974Z,18.00
2022-07-26T22:05:42.373Z,18.10
2022-07-26T22:08:12.866Z,18.10
2022-07-26T22:10:44.736Z,18.10
2022-07-26T22:13:12.875Z,18.00
2022-07-26T22:15:40.363Z,18.00
2022-07-26T22:18:09.712Z,18.00
2022-07-26T22:20:37.454Z,18.00
2022-07-26T22:23:10.315Z,17.90
2022-07-26T22:25:38.242Z,17.90
2022-07-26T22:28:06.708Z,18.00
2022-07-26T22:30:33.828Z,17.90
2022-07-26T22:33:03.067Z,17.90
2022-07-26T22:35:33.946Z,17.90
2022-07-26T22:38:07.285Z,17.90
2022-07-26T22:40:34.783Z,17.90
2022-07-26T22:43:02.049Z,18.00
2022-07-26T22:45:30.401Z,17.90
2022-07-26T22:47:58.027Z,17.90
2022-07-26T22:50:25.562Z,18.00
2022-07-26T22:52:53.197Z,17.90
2022-07-26T22:55:20.881Z,17.90
2022-07-26T22:57:47.995Z,17.90
2022-07-26T23:00:17.631Z,17.90
2022-07-26T23:02:44.912Z,18.00
2022-07-26T23:05:11.918Z,18.00
2022-07-26T23:07:39.562Z,17.90
2022-07-26T23:10:09.757Z,17.90
2022-07-26T23:12:37.398Z,17.90
2022-07-26T23:15:05.960Z,17.90
2022-07-26T23:17:32.929Z,17.90
2022-07-26T23:19:59.851Z,18.00
2022-07-26T23:22:26.959Z,17.90
2022-07-26T23:24:53.870Z,17.90
2022-07-26T23:27:20.952Z,17.90
2022-07-26T23:29:49.090Z,17.90
2022-07-26T23:32:16.882Z,18.00
2022-07-26T23:34:44.095Z,17.90
2022-07-26T23:37:11.493Z,17.90
2022-07-26T23:39:38.437Z,17.90
2022-07-26T23:42:07.116Z,17.80
2022-07-26T23:44:34.431Z,17.80
2022-07-26T23:47:01.734Z,17.80
2022-07-26T23:49:29.079Z,17.80
2022-07-26T23:51:56.221Z,17.70
2022-07-26T23:54:23.261Z,17.70
2022-07-26T23:56:50.213Z,17.80
2022-07-26T23:59:17.490Z,17.70
